createdAt,value
2019-04-06T00:00:57.584Z,14.48
2019-04-06T00:01:58.150Z,14.51
2019-04-06T00:02:58.722Z,14.55
2019-04-06T00:03:59.297Z,14.48
2019-04-06T00:04:59.865Z,14.59
2019-04-06T00:06:00.449Z,14.47
2019-04-06T00:07:01.006Z,14.43
2019-04-06T00:08:01.676Z,14.47
2019-04-06T00:09:02.396Z,14.36
2019-04-06T00:10:02.968Z,14.41
2019-04-06T00:11:03.592Z,14.35
2019-04-06T00:12:04.160Z,14.26
2019-04-06T00:13:04.779Z,14.33
2019-04-06T00:14:05.349Z,14.30
2019-04-06T00:15:05.919Z,14.36
2019-04-06T00:16:06.489Z,14.29
2019-04-06T00:17:07.099Z,14.28
2019-04-06T00:18:07.632Z,14.23
2019-04-06T00:19:08.215Z,14.36
2019-04-06T00:20:08.777Z,14.37
2019-04-06T00:21:09.347Z,14.35
2019-04-06T00:22:09.918Z,14.23
2019-04-06T00:23:10.487Z,14.26
2019-04-06T00:24:11.106Z,14.20
2019-04-06T00:25:11.678Z,14.22
2019-04-06T00:26:12.248Z,14.26
2019-04-06T00:27:12.865Z,14.23
2019-04-06T00:28:13.437Z,14.23
2019-04-06T00:29:14.007Z,14.28
2019-04-06T00:30:14.579Z,14.28
2019-04-06T00:31:15.192Z,14.36
2019-04-06T00:32:15.813Z,14.32
2019-04-06T00:33:16.433Z,14.33
2019-04-06T00:34:17.002Z,14.26
2019-04-06T00:35:17.572Z,14.28
2019-04-06T00:36:18.141Z,14.33
2019-04-06T00:37:18.712Z,14.25
2019-04-06T00:38:19.286Z,14.29
2019-04-06T00:39:19.856Z,14.25
2019-04-06T00:40:20.481Z,14.28
2019-04-06T00:41:21.050Z,14.26
2019-04-06T00:42:21.621Z,14.32
2019-04-06T00:43:22.261Z,14.43
2019-04-06T00:44:22.813Z,14.36
2019-04-06T00:45:23.434Z,14.29
2019-04-06T00:46:24.006Z,14.43
2019-04-06T00:47:24.626Z,14.26
2019-04-06T00:48:25.289Z,14.33
2019-04-06T00:49:25.918Z,14.30
2019-04-06T00:50:26.447Z,14.32
2019-04-06T00:51:27.020Z,14.29
2019-04-06T00:52:27.593Z,14.23
2019-04-06T00:53:28.169Z,14.33
2019-04-06T00:54:28.738Z,14.29
2019-04-06T00:55:29.308Z,14.26
2019-04-06T00:56:29.881Z,14.28
2019-04-06T00:57:30.450Z,14.28
2019-04-06T00:58:31.019Z,14.30
2019-04-06T00:59:31.593Z,14.33
2019-04-06T01:00:32.162Z,14.29
2019-04-06T01:01:32.783Z,14.29
2019-04-06T01:02:33.404Z,14.36
2019-04-06T01:03:33.975Z,14.35
2019-04-06T01:04:34.547Z,14.25
2019-04-06T01:05:35.117Z,14.32
2019-04-06T01:06:35.690Z,14.29
2019-04-06T01:07:36.261Z,14.32
2019-04-06T01:08:36.833Z,14.29
2019-04-06T01:09:37.404Z,14.33
2019-04-06T01:10:38.029Z,14.23
2019-04-06T01:11:38.646Z,14.30
2019-04-06T01:12:39.217Z,14.25
2019-04-06T01:13:39.789Z,14.26
2019-04-06T01:14:40.449Z,14.35
2019-04-06T01:15:41.034Z,14.29
2019-04-06T01:16:41.581Z,14.30
2019-04-06T01:17:42.200Z,14.41
2019-04-06T01:18:42.771Z,14.40
2019-04-06T01:19:43.347Z,14.37
2019-04-06T01:20:43.965Z,14.37
2019-04-06T01:21:44.587Z,14.41
2019-04-06T01:22:45.157Z,14.30
2019-04-06T01:23:45.730Z,14.40
2019-04-06T01:24:46.301Z,14.29
2019-04-06T01:25:46.875Z,14.35
2019-04-06T01:26:47.443Z,14.30
2019-04-06T01:27:48.124Z,14.30
2019-04-06T01:28:48.662Z,14.29
2019-04-06T01:29:49.235Z,14.22
2019-04-06T01:30:49.804Z,14.29
2019-04-06T01:31:50.379Z,14.36
2019-04-06T01:32:50.947Z,14.18
2019-04-06T01:33:51.518Z,14.25
2019-04-06T01:34:52.089Z,14.23
2019-04-06T01:35:52.710Z,14.14
2019-04-06T01:36:53.279Z,14.08
2019-04-06T01:37:53.851Z,14.14
2019-04-06T01:38:54.471Z,14.14
2019-04-06T01:39:55.088Z,14.11
2019-04-06T01:40:55.693Z,14.17
2019-04-06T01:41:56.264Z,14.17
2019-04-06T01:42:56.834Z,14.14
2019-04-06T01:43:57.413Z,14.17
2019-04-06T01:44:57.985Z,14.12
2019-04-06T01:45:58.557Z,14.11
2019-04-06T01:46:59.182Z,14.11
2019-04-06T01:47:59.700Z,14.00
2019-04-06T01:49:00.330Z,14.00
2019-04-06T01:50:00.895Z,14.00
2019-04-06T01:51:01.468Z,13.96
2019-04-06T01:52:02.038Z,14.03
2019-04-06T01:53:02.658Z,14.00
2019-04-06T01:54:03.226Z,14.07
2019-04-06T01:55:03.797Z,14.00
2019-04-06T01:56:04.367Z,14.05
2019-04-06T01:57:04.937Z,14.07
2019-04-06T01:58:05.600Z,14.12
2019-04-06T01:59:06.170Z,14.20
2019-04-06T02:00:06.742Z,14.05
2019-04-06T02:01:07.312Z,14.12
2019-04-06T02:02:08.027Z,14.10
2019-04-06T02:03:08.566Z,14.07
2019-04-06T02:04:09.142Z,14.11
2019-04-06T02:05:09.707Z,14.07
2019-04-06T02:06:10.277Z,14.07
2019-04-06T02:07:10.849Z,14.07
2019-04-06T02:08:11.543Z,14.14
2019-04-06T02:09:12.080Z,14.11
2019-04-06T02:10:12.901Z,13.97
2019-04-06T02:11:13.471Z,13.93
2019-04-06T02:12:14.043Z,13.95
2019-04-06T02:13:14.619Z,13.90
2019-04-06T02:14:15.236Z,13.92
2019-04-06T02:15:15.849Z,13.86
2019-04-06T02:16:16.377Z,13.78
2019-04-06T02:17:16.998Z,13.81
2019-04-06T02:18:17.569Z,13.90
2019-04-06T02:19:18.191Z,13.86
2019-04-06T02:20:18.813Z,13.96
2019-04-06T02:21:19.383Z,13.96
2019-04-06T02:22:19.953Z,13.95
2019-04-06T02:23:20.526Z,14.03
2019-04-06T02:24:21.095Z,14.14
2019-04-06T02:25:21.667Z,14.12
2019-04-06T02:26:30.149Z,14.17
2019-04-06T02:27:23.854Z,14.11
2019-04-06T02:28:24.422Z,14.14
2019-04-06T02:29:25.044Z,14.12
2019-04-06T02:30:25.620Z,14.14
2019-04-06T02:31:26.190Z,14.14
2019-04-06T02:32:26.773Z,14.11
2019-04-06T02:33:27.341Z,14.12
2019-04-06T02:34:27.918Z,14.15
2019-04-06T02:35:28.527Z,14.15
2019-04-06T02:36:29.099Z,14.15
2019-04-06T02:37:29.711Z,14.15
2019-04-06T02:38:30.328Z,14.08
2019-04-06T02:39:30.899Z,14.15
2019-04-06T02:40:31.471Z,14.17
2019-04-06T02:41:32.044Z,14.12
2019-04-06T02:42:32.630Z,14.14
2019-04-06T02:43:33.190Z,14.11
2019-04-06T02:44:33.858Z,14.12
2019-04-06T02:45:34.545Z,14.26
2019-04-06T02:46:35.338Z,14.25
2019-04-06T02:47:36.082Z,14.20
2019-04-06T02:48:36.611Z,14.20
2019-04-06T02:49:37.229Z,14.26
2019-04-06T02:50:37.858Z,14.23
2019-04-06T02:51:38.508Z,14.28
2019-04-06T02:52:39.152Z,14.14
2019-04-06T02:53:39.694Z,14.15
2019-04-06T02:54:40.309Z,14.15
2019-04-06T02:55:40.938Z,14.14
2019-04-06T02:56:46.382Z,14.12
2019-04-06T02:57:43.052Z,14.22
2019-04-06T02:58:43.628Z,14.11
2019-04-06T02:59:44.200Z,14.14
2019-04-06T03:00:44.905Z,14.12
2019-04-06T03:01:45.434Z,14.17
2019-04-06T03:02:46.055Z,14.05
2019-04-06T03:03:46.717Z,14.04
2019-04-06T03:04:47.343Z,14.00
2019-04-06T03:05:47.909Z,14.05
2019-04-06T03:06:48.484Z,14.05
2019-04-06T03:07:49.101Z,13.99
2019-04-06T03:08:49.711Z,13.96
2019-04-06T03:09:50.337Z,13.95
2019-04-06T03:10:50.934Z,13.93
2019-04-06T03:11:51.477Z,13.93
2019-04-06T03:12:52.097Z,13.78
2019-04-06T03:13:52.668Z,13.85
2019-04-06T03:14:53.235Z,13.90
2019-04-06T03:15:53.810Z,13.83
2019-04-06T03:16:54.379Z,13.92
2019-04-06T03:17:54.989Z,13.90
2019-04-06T03:18:55.614Z,13.92
2019-04-06T03:19:56.196Z,13.99
2019-04-06T03:20:56.795Z,13.87
2019-04-06T03:21:57.368Z,13.99
2019-04-06T03:22:57.936Z,13.92
2019-04-06T03:23:58.509Z,13.97
2019-04-06T03:24:59.153Z,14.04
2019-04-06T03:25:59.680Z,13.96
2019-04-06T03:27:02.647Z,13.97
2019-04-06T03:28:02.046Z,13.99
2019-04-06T03:29:02.585Z,13.93
2019-04-06T03:30:03.487Z,13.96
2019-04-06T03:31:04.171Z,13.99
2019-04-06T03:32:04.984Z,13.97
2019-04-06T03:33:05.718Z,14.05
2019-04-06T03:34:06.207Z,14.08
2019-04-06T03:35:06.849Z,14.00
2019-04-06T03:36:07.541Z,14.10
2019-04-06T03:37:08.092Z,14.10
2019-04-06T03:38:08.716Z,14.00
2019-04-06T03:39:09.276Z,14.08
2019-04-06T03:40:09.961Z,14.15
2019-04-06T03:41:10.657Z,14.15
2019-04-06T03:42:11.677Z,14.18
2019-04-06T03:43:12.421Z,14.17
2019-04-06T03:44:12.996Z,14.22
2019-04-06T03:45:13.862Z,14.26
2019-04-06T03:46:14.856Z,14.23
2019-04-06T03:47:15.462Z,14.23
2019-04-06T03:48:16.040Z,14.22
2019-04-06T03:49:16.604Z,14.22
2019-04-06T03:50:17.229Z,14.17
2019-04-06T03:51:17.795Z,14.22
2019-04-06T03:52:18.371Z,14.22
2019-04-06T03:53:19.150Z,14.12
2019-04-06T03:54:19.722Z,14.04
2019-04-06T03:55:20.305Z,13.99
2019-04-06T03:56:21.073Z,14.04
2019-04-06T03:57:21.627Z,13.89
2019-04-06T03:58:22.190Z,13.87
2019-04-06T03:59:22.769Z,13.85
2019-04-06T04:00:23.333Z,13.83
2019-04-06T04:01:23.904Z,13.85
2019-04-06T04:02:24.474Z,13.79
2019-04-06T04:03:25.119Z,13.83
2019-04-06T04:04:25.654Z,13.90
2019-04-06T04:05:26.227Z,13.93
2019-04-06T04:06:26.799Z,13.99
2019-04-06T04:07:27.370Z,13.86
2019-04-06T04:08:27.948Z,13.92
2019-04-06T04:09:28.511Z,13.99
2019-04-06T04:10:29.080Z,13.87
2019-04-06T04:11:29.652Z,14.05
2019-04-06T04:12:30.352Z,13.96
2019-04-06T04:13:31.144Z,13.99
2019-04-06T04:14:31.685Z,14.04
2019-04-06T04:15:32.303Z,13.99
2019-04-06T04:16:32.876Z,13.93
2019-04-06T04:17:33.562Z,13.99
2019-04-06T04:18:34.731Z,13.96
2019-04-06T04:19:35.408Z,13.96
2019-04-06T04:20:35.944Z,13.90
2019-04-06T04:21:36.555Z,13.93
2019-04-06T04:22:37.131Z,13.99
2019-04-06T04:23:37.694Z,13.90
2019-04-06T04:24:38.317Z,13.92
2019-04-06T04:25:38.930Z,14.04
2019-04-06T04:26:39.672Z,14.00
2019-04-06T04:27:40.708Z,13.97
2019-04-06T04:28:41.301Z,14.03
2019-04-06T04:29:41.848Z,14.00
2019-04-06T04:30:42.457Z,13.95
2019-04-06T04:31:43.034Z,13.96
2019-04-06T04:32:43.598Z,14.05
2019-04-06T04:33:44.174Z,14.00
2019-04-06T04:34:44.835Z,13.99
2019-04-06T04:35:46.251Z,13.96
2019-04-06T04:36:46.821Z,14.05
2019-04-06T04:37:47.405Z,13.93
2019-04-06T04:38:48.031Z,14.00
2019-04-06T04:39:48.582Z,13.99
2019-04-06T04:40:49.152Z,14.00
2019-04-06T04:41:49.722Z,13.95
2019-04-06T04:42:50.352Z,13.96
2019-04-06T04:43:50.963Z,13.95
2019-04-06T04:44:51.550Z,13.96
2019-04-06T04:45:52.105Z,13.89
2019-04-06T04:46:52.831Z,13.99
2019-04-06T04:47:53.412Z,13.95
2019-04-06T04:48:53.976Z,13.81
2019-04-06T04:49:54.556Z,13.90
2019-04-06T04:50:55.179Z,13.90
2019-04-06T04:51:55.748Z,13.83
2019-04-06T04:52:56.409Z,13.93
2019-04-06T04:53:57.195Z,13.87
2019-04-06T04:54:57.987Z,13.90
2019-04-06T04:55:58.561Z,13.97
2019-04-06T04:56:59.127Z,13.95
2019-04-06T04:57:59.699Z,13.92
2019-04-06T04:59:00.268Z,13.90
2019-04-06T05:00:00.930Z,13.95
2019-04-06T05:01:01.554Z,13.95
2019-04-06T05:02:02.109Z,13.93
2019-04-06T05:03:02.679Z,13.96
2019-04-06T05:04:03.304Z,13.85
2019-04-06T05:05:03.912Z,13.93
2019-04-06T05:06:04.483Z,13.93
2019-04-06T05:07:05.092Z,13.83
2019-04-06T05:08:05.662Z,13.96
2019-04-06T05:09:06.231Z,13.93
2019-04-06T05:10:06.802Z,13.79
2019-04-06T05:11:07.449Z,13.77
2019-04-06T05:12:08.094Z,13.86
2019-04-06T05:13:08.822Z,13.85
2019-04-06T05:14:09.400Z,13.81
2019-04-06T05:15:10.144Z,13.81
2019-04-06T05:16:10.624Z,13.86
2019-04-06T05:17:11.195Z,13.90
2019-04-06T05:18:11.776Z,13.96
2019-04-06T05:19:12.340Z,13.95
2019-04-06T05:20:12.961Z,13.90
2019-04-06T05:21:13.535Z,13.87
2019-04-06T05:22:14.101Z,13.92
2019-04-06T05:23:14.672Z,13.92
2019-04-06T05:24:15.320Z,13.92
2019-04-06T05:25:15.890Z,14.04
2019-04-06T05:26:16.685Z,13.96
2019-04-06T05:27:17.232Z,13.97
2019-04-06T05:28:17.837Z,13.93
2019-04-06T05:29:18.406Z,13.99
2019-04-06T05:30:19.029Z,13.95
2019-04-06T05:31:19.762Z,14.00
2019-04-06T05:32:20.285Z,13.96
2019-04-06T05:33:20.854Z,14.00
2019-04-06T05:34:21.525Z,13.97
2019-04-06T05:35:22.145Z,13.97
2019-04-06T05:36:22.961Z,13.86
2019-04-06T05:37:23.375Z,13.87
2019-04-06T05:38:23.996Z,13.90
2019-04-06T05:39:24.566Z,13.93
2019-04-06T05:40:25.232Z,13.81
2019-04-06T05:41:25.767Z,13.86
2019-04-06T05:42:26.343Z,13.81
2019-04-06T05:43:26.910Z,13.77
2019-04-06T05:44:27.487Z,13.71
2019-04-06T05:45:28.183Z,13.65
2019-04-06T05:46:28.739Z,13.63
2019-04-06T05:47:29.282Z,13.68
2019-04-06T05:48:29.927Z,13.71
2019-04-06T05:49:30.694Z,13.72
2019-04-06T05:50:31.274Z,13.63
2019-04-06T05:51:31.896Z,13.63
2019-04-06T05:52:32.658Z,13.71
2019-04-06T05:53:33.149Z,13.68
2019-04-06T05:54:33.673Z,13.78
2019-04-06T05:55:34.247Z,13.75
2019-04-06T05:56:34.897Z,13.71
2019-04-06T05:57:37.267Z,13.71
2019-04-06T05:58:39.959Z,13.68
2019-04-06T05:59:40.962Z,13.63
2019-04-06T06:00:41.049Z,13.59
2019-04-06T06:01:41.058Z,13.68
2019-04-06T06:02:41.842Z,13.56
2019-04-06T06:03:42.480Z,13.56
2019-04-06T06:04:43.066Z,13.70
2019-04-06T06:05:43.664Z,13.70
2019-04-06T06:06:44.238Z,13.67
2019-04-06T06:07:44.804Z,13.67
2019-04-06T06:08:45.374Z,13.71
2019-04-06T06:09:46.120Z,13.67
2019-04-06T06:10:46.650Z,13.71
2019-04-06T06:11:47.221Z,13.63
2019-04-06T06:12:47.839Z,13.68
2019-04-06T06:13:48.409Z,13.65
2019-04-06T06:14:49.028Z,13.62
2019-04-06T06:15:49.598Z,13.67
2019-04-06T06:16:50.205Z,13.68
2019-04-06T06:17:50.813Z,13.68
2019-04-06T06:18:51.378Z,13.70
2019-04-06T06:19:51.994Z,13.62
2019-04-06T06:20:52.570Z,13.67
2019-04-06T06:21:53.135Z,13.63
2019-04-06T06:22:53.758Z,13.60
2019-04-06T06:23:54.359Z,13.68
2019-04-06T06:24:55.129Z,13.60
2019-04-06T06:25:55.597Z,13.62
2019-04-06T06:26:56.125Z,13.63
2019-04-06T06:27:56.696Z,13.63
2019-04-06T06:28:57.266Z,13.65
2019-04-06T06:29:57.836Z,13.67
2019-04-06T06:30:58.594Z,13.63
2019-04-06T06:31:59.409Z,13.68
2019-04-06T06:33:00.021Z,13.68
2019-04-06T06:34:00.599Z,13.78
2019-04-06T06:35:01.159Z,13.79
2019-04-06T06:36:01.730Z,13.89
2019-04-06T06:37:02.298Z,13.93
2019-04-06T06:38:02.867Z,13.87
2019-04-06T06:39:03.436Z,13.92
2019-04-06T06:40:04.008Z,13.83
2019-04-06T06:41:04.726Z,13.83
2019-04-06T06:42:05.296Z,13.86
2019-04-06T06:43:05.869Z,13.79
2019-04-06T06:44:06.715Z,13.85
2019-04-06T06:45:07.662Z,13.85
2019-04-06T06:46:08.203Z,13.78
2019-04-06T06:47:08.772Z,13.77
2019-04-06T06:48:09.415Z,13.78
2019-04-06T06:49:09.964Z,13.77
2019-04-06T06:50:10.544Z,13.79
2019-04-06T06:51:11.151Z,13.81
2019-04-06T06:52:11.721Z,13.83
2019-04-06T06:53:12.447Z,13.87
2019-04-06T06:54:13.031Z,13.81
2019-04-06T06:55:13.634Z,13.74
2019-04-06T06:56:14.238Z,13.77
2019-04-06T06:57:14.771Z,13.72
2019-04-06T06:58:24.588Z,13.78
2019-04-06T06:59:16.948Z,13.77
2019-04-06T07:00:22.621Z,13.72
2019-04-06T07:01:23.137Z,13.77
2019-04-06T07:02:23.954Z,13.77
2019-04-06T07:03:24.480Z,13.71
2019-04-06T07:04:25.329Z,13.68
2019-04-06T07:05:25.870Z,13.70
2019-04-06T07:06:26.438Z,13.72
2019-04-06T07:07:27.008Z,13.72
2019-04-06T07:08:27.627Z,13.70
2019-04-06T07:09:28.200Z,13.74
2019-04-06T07:10:28.862Z,13.74
2019-04-06T07:11:29.491Z,13.78
2019-04-06T07:12:30.143Z,13.78
2019-04-06T07:13:30.869Z,13.81
2019-04-06T07:14:31.630Z,13.89
2019-04-06T07:15:32.161Z,13.96
2019-04-06T07:16:32.730Z,13.92
2019-04-06T07:17:33.300Z,13.96
2019-04-06T07:18:33.873Z,13.93
2019-04-06T07:19:34.488Z,13.96
2019-04-06T07:20:35.056Z,13.92
2019-04-06T07:21:35.714Z,14.03
2019-04-06T07:22:36.702Z,13.93
2019-04-06T07:23:37.360Z,14.03
2019-04-06T07:24:37.892Z,14.04
2019-04-06T07:25:38.462Z,13.96
2019-04-06T07:26:41.161Z,14.05
2019-04-06T07:27:40.600Z,14.04
2019-04-06T07:28:41.173Z,14.10
2019-04-06T07:29:41.786Z,14.05
2019-04-06T07:30:42.357Z,14.04
2019-04-06T07:31:42.979Z,14.05
2019-04-06T07:32:43.827Z,14.10
2019-04-06T07:33:44.436Z,14.05
2019-04-06T07:34:44.997Z,14.05
2019-04-06T07:35:45.728Z,14.11
2019-04-06T07:36:46.255Z,14.15
2019-04-06T07:37:46.878Z,14.08
2019-04-06T07:38:47.497Z,14.03
2019-04-06T07:39:48.067Z,14.11
2019-04-06T07:40:48.691Z,14.05
2019-04-06T07:41:49.416Z,14.00
2019-04-06T07:42:49.941Z,13.96
2019-04-06T07:43:50.570Z,13.97
2019-04-06T07:44:51.225Z,13.92
2019-04-06T07:45:51.856Z,13.92
2019-04-06T07:46:52.635Z,13.83
2019-04-06T07:47:53.257Z,13.92
2019-04-06T07:48:53.827Z,13.93
2019-04-06T07:49:54.625Z,13.85
2019-04-06T07:50:55.148Z,13.92
2019-04-06T07:51:55.894Z,13.87
2019-04-06T07:52:56.471Z,13.95
2019-04-06T07:53:57.040Z,13.96
2019-04-06T07:54:57.878Z,13.87
2019-04-06T07:55:58.403Z,13.87
2019-04-06T07:56:58.975Z,13.95
2019-04-06T07:57:59.578Z,13.92
2019-04-06T07:59:00.169Z,13.93
2019-04-06T08:00:00.751Z,13.89
2019-04-06T08:01:01.468Z,13.93
2019-04-06T08:02:02.041Z,13.96
2019-04-06T08:03:02.753Z,13.96
2019-04-06T08:04:03.330Z,14.00
2019-04-06T08:05:03.901Z,13.99
2019-04-06T08:06:04.475Z,13.99
2019-04-06T08:07:05.088Z,13.97
2019-04-06T08:08:05.711Z,13.99
2019-04-06T08:09:06.281Z,13.92
2019-04-06T08:10:06.854Z,13.87
2019-04-06T08:11:07.424Z,13.99
2019-04-06T08:12:07.998Z,13.96
2019-04-06T08:13:08.563Z,13.97
2019-04-06T08:14:09.248Z,13.95
2019-04-06T08:15:10.054Z,13.97
2019-04-06T08:16:10.587Z,13.93
2019-04-06T08:17:11.158Z,13.96
2019-04-06T08:18:11.736Z,14.00
2019-04-06T08:19:12.296Z,13.99
2019-04-06T08:20:12.865Z,14.05
2019-04-06T08:21:13.647Z,14.10
2019-04-06T08:22:14.181Z,14.05
2019-04-06T08:23:14.751Z,14.11
2019-04-06T08:24:15.362Z,14.05
2019-04-06T08:25:15.936Z,14.10
2019-04-06T08:26:16.507Z,14.04
2019-04-06T08:27:17.128Z,14.12
2019-04-06T08:28:17.698Z,14.07
2019-04-06T08:29:18.272Z,14.07
2019-04-06T08:30:18.844Z,14.10
2019-04-06T08:31:19.459Z,14.12
2019-04-06T08:32:19.986Z,14.14
2019-04-06T08:33:20.559Z,14.11
2019-04-06T08:34:21.130Z,14.08
2019-04-06T08:35:26.076Z,14.12
2019-04-06T08:36:23.267Z,14.11
2019-04-06T08:37:23.887Z,14.11
2019-04-06T08:38:24.457Z,14.18
2019-04-06T08:39:25.821Z,14.12
2019-04-06T08:40:25.639Z,14.15
2019-04-06T08:41:26.295Z,14.12
2019-04-06T08:42:26.831Z,14.14
2019-04-06T08:43:27.575Z,14.20
2019-04-06T08:44:28.119Z,14.15
2019-04-06T08:45:28.741Z,14.26
2019-04-06T08:46:29.303Z,14.28
2019-04-06T08:47:29.873Z,14.25
2019-04-06T08:48:30.472Z,14.28
2019-04-06T08:49:31.064Z,14.35
2019-04-06T08:50:31.686Z,14.36
2019-04-06T08:51:32.292Z,14.29
2019-04-06T08:52:33.056Z,14.32
2019-04-06T08:53:33.576Z,14.30
2019-04-06T08:54:34.148Z,14.32
2019-04-06T08:55:34.716Z,14.33
2019-04-06T08:56:35.396Z,14.35
2019-04-06T08:57:35.900Z,14.29
2019-04-06T08:58:36.801Z,14.32
2019-04-06T08:59:37.335Z,14.25
2019-04-06T09:00:38.048Z,14.30
2019-04-06T09:01:38.591Z,14.25
2019-04-06T09:02:39.154Z,14.22
2019-04-06T09:03:39.732Z,14.25
2019-04-06T09:04:40.349Z,14.29
2019-04-06T09:05:40.960Z,14.35
2019-04-06T09:06:41.781Z,14.29
2019-04-06T09:07:42.366Z,14.25
2019-04-06T09:08:43.130Z,14.20
2019-04-06T09:09:43.729Z,14.25
2019-04-06T09:10:44.299Z,14.28
2019-04-06T09:11:44.869Z,14.26
2019-04-06T09:12:45.489Z,14.23
2019-04-06T09:13:46.055Z,14.18
2019-04-06T09:14:46.626Z,14.25
2019-04-06T09:15:47.199Z,14.18
2019-04-06T09:16:47.769Z,14.18
2019-04-06T09:17:48.341Z,14.11
2019-04-06T09:18:49.490Z,14.10
2019-04-06T09:19:49.521Z,14.11
2019-04-06T09:20:50.093Z,14.08
2019-04-06T09:21:50.817Z,14.08
2019-04-06T09:22:51.590Z,14.11
2019-04-06T09:23:52.213Z,14.03
2019-04-06T09:24:52.913Z,14.12
2019-04-06T09:25:53.445Z,14.07
2019-04-06T09:26:54.065Z,14.12
2019-04-06T09:27:54.638Z,14.11
2019-04-06T09:28:55.210Z,14.08
2019-04-06T09:29:55.781Z,14.14
2019-04-06T09:30:56.354Z,14.12
2019-04-06T09:31:56.978Z,14.22
2019-04-06T09:32:57.695Z,14.26
2019-04-06T09:33:58.266Z,14.14
2019-04-06T09:34:58.836Z,14.20
2019-04-06T09:35:59.407Z,14.28
2019-04-06T09:37:00.031Z,14.26
2019-04-06T09:38:00.599Z,14.23
2019-04-06T09:39:01.172Z,14.26
2019-04-06T09:40:01.743Z,14.23
2019-04-06T09:41:02.330Z,14.20
2019-04-06T09:42:02.937Z,14.20
2019-04-06T09:43:03.559Z,14.25
2019-04-06T09:44:04.130Z,14.26
2019-04-06T09:45:05.029Z,14.23
2019-04-06T09:46:05.623Z,14.18
2019-04-06T09:47:06.347Z,14.22
2019-04-06T09:48:06.872Z,14.22
2019-04-06T09:49:07.443Z,14.20
2019-04-06T09:50:08.042Z,14.26
2019-04-06T09:51:08.589Z,14.33
2019-04-06T09:52:09.161Z,14.30
2019-04-06T09:53:09.834Z,14.40
2019-04-06T09:54:10.405Z,14.23
2019-04-06T09:55:10.978Z,14.30
2019-04-06T09:56:11.866Z,14.35
2019-04-06T09:57:12.162Z,14.29
2019-04-06T09:58:12.733Z,14.25
2019-04-06T09:59:13.357Z,14.35
2019-04-06T10:00:14.070Z,14.32
2019-04-06T10:01:14.806Z,14.33
2019-04-06T10:02:15.635Z,14.37
2019-04-06T10:03:16.375Z,14.33
2019-04-06T10:04:16.894Z,14.37
2019-04-06T10:05:17.463Z,14.36
2019-04-06T10:06:18.085Z,14.37
2019-04-06T10:07:18.656Z,14.45
2019-04-06T10:08:19.233Z,14.47
2019-04-06T10:09:19.844Z,14.54
2019-04-06T10:10:20.534Z,14.48
2019-04-06T10:11:21.268Z,14.48
2019-04-06T10:12:21.863Z,14.47
2019-04-06T10:13:22.450Z,14.48
2019-04-06T10:14:23.025Z,14.48
2019-04-06T10:15:23.590Z,14.35
2019-04-06T10:16:24.362Z,14.40
2019-04-06T10:17:24.935Z,14.40
2019-04-06T10:18:25.546Z,14.44
2019-04-06T10:19:26.314Z,14.47
2019-04-06T10:20:26.891Z,14.50
2019-04-06T10:21:27.577Z,14.51
2019-04-06T10:22:28.418Z,14.47
2019-04-06T10:23:29.099Z,14.51
2019-04-06T10:24:29.679Z,14.48
2019-04-06T10:25:30.298Z,14.59
2019-04-06T10:26:31.044Z,14.54
2019-04-06T10:27:31.687Z,14.62
2019-04-06T10:28:32.207Z,14.55
2019-04-06T10:29:32.984Z,14.54
2019-04-06T10:30:33.820Z,14.55
2019-04-06T10:31:34.357Z,14.59
2019-04-06T10:32:35.198Z,14.55
2019-04-06T10:33:36.289Z,14.54
2019-04-06T10:34:37.010Z,14.51
2019-04-06T10:35:37.606Z,14.59
2019-04-06T10:36:38.331Z,14.45
2019-04-06T10:37:38.941Z,14.50
2019-04-06T10:38:39.876Z,14.45
2019-04-06T10:39:40.451Z,14.47
2019-04-06T10:40:41.021Z,14.47
2019-04-06T10:41:41.924Z,14.53
2019-04-06T10:42:42.501Z,14.44
2019-04-06T10:43:43.076Z,14.51
2019-04-06T10:44:43.691Z,14.37
2019-04-06T10:45:44.302Z,14.47
2019-04-06T10:46:44.874Z,14.54
2019-04-06T10:47:45.448Z,14.54
2019-04-06T10:48:46.014Z,14.48
2019-04-06T10:49:46.585Z,14.55
2019-04-06T10:50:47.155Z,14.62
2019-04-06T10:51:47.727Z,14.62
2019-04-06T10:52:48.296Z,14.54
2019-04-06T10:53:48.869Z,14.55
2019-04-06T10:54:49.439Z,14.63
2019-04-06T10:55:50.011Z,14.60
2019-04-06T10:56:50.581Z,14.58
2019-04-06T10:57:51.414Z,14.62
2019-04-06T10:58:51.931Z,14.58
2019-04-06T11:00:01.169Z,14.54
2019-04-06T11:00:54.121Z,14.59
2019-04-06T11:01:54.697Z,14.54
2019-04-06T11:02:55.263Z,14.54
2019-04-06T11:03:55.833Z,14.50
2019-04-06T11:04:56.688Z,14.55
2019-04-06T11:05:57.217Z,14.53
2019-04-06T11:06:57.834Z,14.60
2019-04-06T11:07:58.481Z,14.51
2019-04-06T11:08:59.009Z,14.53
2019-04-06T11:09:59.582Z,14.51
2019-04-06T11:11:02.450Z,14.58
2019-04-06T11:12:00.774Z,14.51
2019-04-06T11:13:01.336Z,14.55
2019-04-06T11:14:01.959Z,14.62
2019-04-06T11:15:02.582Z,14.65
2019-04-06T11:16:03.158Z,14.55
2019-04-06T11:17:03.774Z,14.62
2019-04-06T11:18:04.345Z,14.58
2019-04-06T11:19:04.917Z,14.65
2019-04-06T11:20:05.488Z,14.68
2019-04-06T11:21:06.061Z,14.65
2019-04-06T11:22:06.683Z,14.70
2019-04-06T11:23:07.253Z,14.81
2019-04-06T11:24:08.030Z,14.70
2019-04-06T11:25:08.550Z,14.85
2019-04-06T11:26:09.171Z,14.85
2019-04-06T11:27:09.746Z,14.85
2019-04-06T11:28:10.549Z,14.88
2019-04-06T11:29:11.125Z,14.94
2019-04-06T11:30:14.243Z,15.02
2019-04-06T11:31:13.364Z,15.07
2019-04-06T11:32:13.981Z,14.99
2019-04-06T11:33:14.605Z,15.09
2019-04-06T11:34:15.174Z,15.14
2019-04-06T11:35:16.038Z,15.17
2019-04-06T11:36:16.673Z,15.10
2019-04-06T11:37:17.243Z,15.17
2019-04-06T11:38:17.825Z,15.17
2019-04-06T11:39:18.597Z,15.18
2019-04-06T11:40:19.269Z,15.11
2019-04-06T11:41:19.799Z,15.18
2019-04-06T11:42:20.373Z,15.15
2019-04-06T11:43:20.996Z,15.15
2019-04-06T11:44:21.571Z,15.25
2019-04-06T11:45:22.447Z,15.28
2019-04-06T11:46:23.213Z,15.33
2019-04-06T11:47:23.791Z,15.31
2019-04-06T11:48:24.361Z,15.31
2019-04-06T11:49:25.203Z,15.33
2019-04-06T11:50:25.786Z,15.35
2019-04-06T11:51:26.588Z,15.35
2019-04-06T11:52:27.127Z,15.33
2019-04-06T11:53:27.738Z,15.31
2019-04-06T11:54:28.353Z,15.36
2019-04-06T11:55:28.885Z,15.37
2019-04-06T11:56:29.455Z,15.47
2019-04-06T11:57:30.180Z,15.47
2019-04-06T11:58:30.752Z,15.40
2019-04-06T11:59:31.377Z,15.47
2019-04-06T12:00:31.950Z,15.46
2019-04-06T12:01:32.575Z,15.47
2019-04-06T12:02:33.184Z,15.51
2019-04-06T12:03:34.120Z,15.51
2019-04-06T12:04:35.018Z,15.51
2019-04-06T12:05:35.565Z,15.47
2019-04-06T12:06:36.139Z,15.59
2019-04-06T12:07:36.763Z,15.55
2019-04-06T12:08:37.334Z,15.59
2019-04-06T12:09:37.995Z,15.62
2019-04-06T12:10:38.746Z,15.58
2019-04-06T12:11:39.578Z,15.59
2019-04-06T12:12:40.109Z,15.64
2019-04-06T12:13:40.678Z,15.61
2019-04-06T12:14:41.250Z,15.67
2019-04-06T12:15:41.822Z,15.64
2019-04-06T12:16:42.393Z,15.62
2019-04-06T12:17:43.058Z,15.59
2019-04-06T12:18:43.796Z,15.59
2019-04-06T12:19:44.341Z,15.58
2019-04-06T12:20:44.964Z,15.65
2019-04-06T12:21:45.539Z,15.59
2019-04-06T12:22:46.109Z,15.62
2019-04-06T12:23:47.044Z,15.57
2019-04-06T12:24:47.599Z,15.58
2019-04-06T12:25:48.208Z,15.52
2019-04-06T12:26:48.751Z,15.59
2019-04-06T12:27:49.324Z,15.58
2019-04-06T12:28:49.898Z,15.61
2019-04-06T12:29:50.746Z,15.55
2019-04-06T12:30:51.549Z,15.59
2019-04-06T12:31:52.085Z,15.54
2019-04-06T12:32:52.663Z,15.57
2019-04-06T12:33:53.320Z,15.49
2019-04-06T12:34:53.910Z,15.47
2019-04-06T12:35:54.491Z,15.51
2019-04-06T12:36:55.098Z,15.47
2019-04-06T12:37:56.011Z,15.47
2019-04-06T12:38:56.578Z,15.44
2019-04-06T12:39:57.152Z,15.51
2019-04-06T12:40:57.723Z,15.49
2019-04-06T12:41:58.349Z,15.49
2019-04-06T12:42:58.922Z,15.46
2019-04-06T12:43:59.861Z,15.46
2019-04-06T12:45:00.409Z,15.39
2019-04-06T12:46:01.083Z,15.44
2019-04-06T12:47:01.959Z,15.39
2019-04-06T12:48:02.816Z,15.40
2019-04-06T12:49:03.507Z,15.36
2019-04-06T12:50:04.084Z,15.37
2019-04-06T12:51:04.887Z,15.40
2019-04-06T12:52:05.381Z,15.28
2019-04-06T12:53:06.190Z,15.37
2019-04-06T12:54:06.934Z,15.29
2019-04-06T12:55:07.371Z,15.37
2019-04-06T12:56:07.940Z,15.28
2019-04-06T12:57:08.514Z,15.35
2019-04-06T12:58:09.126Z,15.25
2019-04-06T12:59:09.869Z,15.22
2019-04-06T13:00:10.709Z,15.14
2019-04-06T13:01:11.312Z,15.22